Time;durP1;ratioP1;P1;durP2;ratioP2;P2;SDS_P1;SDS_P2;PMS_P1;PMS_P2;Temp;Humidity;BMP_temperature;BMP_pressure;BME280_temperature;BME280_humidity;BME280_pressure;Samples;Min_cycle;Max_cycle;Signal;HPM_P1;HPM_P2
2023/09/08 00:02:10;;;;;;;9.82;6.20;;;;;;;;;;6209503;28;20339;-81
2023/09/08 00:05:12;;;;;;;8.55;6.05;;;;;;;;;;6196551;28;20058;-82
2023/09/08 00:08:14;;;;;;;13.18;6.38;;;;;;;;;;6207378;28;20159;-83
2023/09/08 00:11:18;;;;;;;7.65;5.72;;;;;;;;;;6294616;28;20056;-83
2023/09/08 00:14:20;;;;;;;10.70;6.30;;;;;;;;;;6329130;28;20055;-83
2023/09/08 00:21:18;;;;;;;10.32;5.85;;;;;;;;;;6330553;28;21295;-82
2023/09/08 00:28:00;;;;;;;8.13;6.35;;;;;;;;;;6332539;28;20074;-82
2023/09/08 00:31:37;;;;;;;12.73;6.68;;;;;;;;;;6337799;28;20055;-82
2023/09/08 00:38:44;;;;;;;9.85;6.65;;;;;;;;;;6230989;28;20637;-82
2023/09/08 00:42:09;;;;;;;12.13;7.95;;;;;;;;;;6234457;28;20053;-82
2023/09/08 00:49:51;;;;;;;11.63;7.13;;;;;;;;;;6201844;28;20069;-83
2023/09/08 00:52:53;;;;;;;10.63;6.68;;;;;;;;;;6242076;28;21733;-84
2023/09/08 00:56:19;;;;;;;9.52;6.60;;;;;;;;;;6244470;28;20049;-84
2023/09/08 01:02:47;;;;;;;9.85;7.40;;;;;;;;;;6166909;28;20047;-82
2023/09/08 01:05:53;;;;;;;9.40;6.90;;;;;;;;;;6138398;28;20102;-82
2023/09/08 01:09:05;;;;;;;10.57;6.60;;;;;;;;;;6163191;28;20073;-82
2023/09/08 01:12:12;;;;;;;9.75;6.50;;;;;;;;;;6165787;28;20117;-83
2023/09/08 01:19:08;;;;;;;11.45;7.25;;;;;;;;;;6272166;28;20073;-82
2023/09/08 01:26:11;;;;;;;8.88;7.25;;;;;;;;;;6268953;28;20317;-82
2023/09/08 01:29:14;;;;;;;10.60;6.80;;;;;;;;;;6269407;28;20083;-81
2023/09/08 01:35:49;;;;;;;11.52;7.05;;;;;;;;;;6176869;28;20047;-82
2023/09/08 01:38:54;;;;;;;11.68;8.02;;;;;;;;;;6193154;28;20061;-83
2023/09/08 01:41:57;;;;;;;13.38;7.03;;;;;;;;;;6253081;28;20059;-82
2023/09/08 01:44:59;;;;;;;11.15;7.43;;;;;;;;;;6263480;28;20052;-82
2023/09/08 01:48:04;;;;;;;10.93;7.55;;;;;;;;;;6261808;28;20063;-82
2023/09/08 01:51:06;;;;;;;15.93;8.02;;;;;;;;;;6260370;28;20120;-82
2023/09/08 01:54:14;;;;;;;14.57;8.98;;;;;;;;;;6260961;28;20257;-82
2023/09/08 01:57:20;;;;;;;11.82;9.07;;;;;;;;;;6262866;28;20061;-82
2023/09/08 02:00:23;;;;;;;13.57;9.45;;;;;;;;;;6261436;28;20061;-83
2023/09/08 02:03:27;;;;;;;19.33;9.88;;;;;;;;;;6249328;28;20160;-81
2023/09/08 02:06:29;;;;;;;15.95;9.50;;;;;;;;;;6314187;28;20105;-82
2023/09/08 02:09:59;;;;;;;16.50;10.68;;;;;;;;;;6346291;28;20162;-82
2023/09/08 02:13:23;;;;;;;13.05;9.93;;;;;;;;;;6347789;28;20051;-82
2023/09/08 02:16:47;;;;;;;11.45;9.23;;;;;;;;;;6323919;28;20059;-81
2023/09/08 02:19:48;;;;;;;;;;;;;;;;;;6309515;28;20051;-81
2023/09/08 02:22:51;;;;;;;15.18;8.90;;;;;;;;;;6327762;28;19983;-82
2023/09/08 02:30:09;;;;;;;11.23;8.27;;;;;;;;;;6307865;28;20056;-82
2023/09/08 02:37:01;;;;;;;11.80;8.82;;;;;;;;;;6254778;28;20064;-82
2023/09/08 02:44:12;;;;;;;12.68;7.93;;;;;;;;;;6271705;28;20048;-82
2023/09/08 02:51:07;;;;;;;11.40;8.07;;;;;;;;;;6159023;28;20266;-82
2023/09/08 02:54:48;;;;;;;15.98;8.52;;;;;;;;;;6260927;28;20053;-82
2023/09/08 03:02:22;;;;;;;9.93;8.03;;;;;;;;;;6243783;28;20437;-81
2023/09/08 03:05:24;;;;;;;12.45;8.25;;;;;;;;;;6274058;28;20136;-82
2023/09/08 03:08:28;;;;;;;10.80;8.00;;;;;;;;;;6274534;28;20061;-83
2023/09/08 03:11:30;;;;;;;12.73;8.52;;;;;;;;;;6271534;28;20049;-82
2023/09/08 03:14:32;;;;;;;11.73;8.48;;;;;;;;;;6327454;28;20278;-82
2023/09/08 03:17:34;;;;;;;13.60;9.05;;;;;;;;;;6347403;28;20074;-82
2023/09/08 03:20:37;;;;;;;13.52;9.13;;;;;;;;;;6350048;28;20052;-82
2023/09/08 03:23:40;;;;;;;;;;;;;;;;;;6354465;28;20441;-82
2023/09/08 03:26:45;;;;;;;11.33;8.70;;;;;;;;;;6331598;28;19928;-82
2023/09/08 03:29:50;;;;;;;13.40;9.15;;;;;;;;;;6351370;28;20048;-82
2023/09/08 03:32:52;;;;;;;12.38;8.77;;;;;;;;;;6352165;28;20040;-82
2023/09/08 03:39:11;;;;;;;14.35;9.55;;;;;;;;;;6332653;28;20043;-81
2023/09/08 03:42:17;;;;;;;11.48;8.90;;;;;;;;;;6354536;28;20047;-82
2023/09/08 03:45:19;;;;;;;11.93;8.65;;;;;;;;;;6327222;28;20044;-82
2023/09/08 03:48:22;;;;;;;15.98;9.27;;;;;;;;;;6349839;28;20272;-83
2023/09/08 03:54:46;;;;;;;11.88;8.55;;;;;;;;;;6353919;28;20058;-82
2023/09/08 03:57:49;;;;;;;18.52;10.18;;;;;;;;;;6350568;28;20066;-81
2023/09/08 04:00:55;;;;;;;18.92;10.35;;;;;;;;;;6351439;28;20194;-82
2023/09/08 04:04:09;;;;;;;14.27;9.40;;;;;;;;;;6319338;28;20056;-81
2023/09/08 04:07:12;;;;;;;15.02;9.48;;;;;;;;;;6339742;28;20055;-82
2023/09/08 04:10:27;;;;;;;14.65;9.20;;;;;;;;;;6299802;28;20217;-81
2023/09/08 04:13:33;;;;;;;20.00;10.52;;;;;;;;;;6337715;28;20058;-81
2023/09/08 04:16:38;;;;;;;14.88;9.85;;;;;;;;;;6350653;28;20343;-79
2023/09/08 04:19:42;;;;;;;17.15;10.85;;;;;;;;;;6303512;28;20094;-82
2023/09/08 04:22:54;;;;;;;17.45;10.02;;;;;;;;;;6348963;28;20067;-82
2023/09/08 04:29:29;;;;;;;11.75;9.32;;;;;;;;;;6349532;28;20359;-81
2023/09/08 04:32:32;;;;;;;14.93;9.05;;;;;;;;;;6334898;28;20055;-82
2023/09/08 04:35:39;;;;;;;12.35;9.05;;;;;;;;;;6353622;28;20062;-83
2023/09/08 04:38:45;;;;;;;12.98;8.93;;;;;;;;;;6332182;27;20043;-82
2023/09/08 04:41:57;;;;;;;16.50;9.38;;;;;;;;;;6327285;27;20052;-82
2023/09/08 04:45:01;;;;;;;14.38;9.43;;;;;;;;;;6317431;28;20122;-81
2023/09/08 04:48:07;;;;;;;15.48;10.18;;;;;;;;;;6353551;27;20455;-81
2023/09/08 04:51:19;;;;;;;14.07;9.88;;;;;;;;;;6367768;27;20046;-81
2023/09/08 04:54:35;;;;;;;13.88;9.68;;;;;;;;;;6338825;27;20094;-81
2023/09/08 04:57:48;;;;;;;25.45;10.23;;;;;;;;;;6328790;27;20051;-81
2023/09/08 05:01:22;;;;;;;;;;;;;;;;;;6359696;27;20062;-81
2023/09/08 05:04:24;;;;;;;18.63;9.77;;;;;;;;;;6346442;27;19922;-81
2023/09/08 05:07:26;;;;;;;16.77;10.13;;;;;;;;;;6331905;27;20062;-82
2023/09/08 05:10:29;;;;;;;13.23;9.10;;;;;;;;;;6374368;27;20101;-83
2023/09/08 05:13:32;;;;;;;15.30;9.57;;;;;;;;;;6360156;27;20046;-82
2023/09/08 05:16:45;;;;;;;14.63;9.63;;;;;;;;;;6328454;28;20305;-84
2023/09/08 05:19:50;;;;;;;12.45;8.88;;;;;;;;;;6333610;27;20061;-83
2023/09/08 05:22:53;;;;;;;13.43;9.35;;;;;;;;;;6361501;27;20571;-83
2023/09/08 05:26:03;;;;;;;;;;;;;;;;;;6370587;27;20051;-83
2023/09/08 05:29:10;;;;;;;14.10;9.00;;;;;;;;;;6343141;27;19934;-84
2023/09/08 05:32:21;;;;;;;14.55;10.13;;;;;;;;;;6351766;27;20114;-81
2023/09/08 05:35:34;;;;;;;15.27;10.88;;;;;;;;;;6379737;27;20280;-83
2023/09/08 05:38:46;;;;;;;21.48;10.45;;;;;;;;;;6354179;27;20063;-82
2023/09/08 05:41:51;;;;;;;18.00;10.97;;;;;;;;;;6349629;28;20055;-82
2023/09/08 05:44:55;;;;;;;14.63;10.43;;;;;;;;;;6351421;28;20054;-83
2023/09/08 05:47:57;;;;;;;13.70;10.20;;;;;;;;;;6351151;28;20347;-83
2023/09/08 05:50:59;;;;;;;19.23;10.45;;;;;;;;;;6349911;28;20410;-83
2023/09/08 05:54:01;;;;;;;16.65;10.73;;;;;;;;;;6350841;27;20385;-82
2023/09/08 05:57:05;;;;;;;21.02;11.00;;;;;;;;;;6353201;28;20123;-83
2023/09/08 06:00:09;;;;;;;18.20;9.90;;;;;;;;;;6351328;28;20082;-83
2023/09/08 06:03:17;;;;;;;13.60;9.77;;;;;;;;;;6352212;28;20059;-83
2023/09/08 06:06:19;;;;;;;15.13;10.52;;;;;;;;;;6350417;27;20052;-84
2023/09/08 06:09:27;;;;;;;17.03;11.13;;;;;;;;;;6311085;28;20058;-83
2023/09/08 06:13:07;;;;;;;15.40;10.85;;;;;;;;;;6330767;28;20139;-83
2023/09/08 06:16:29;;;;;;;14.40;9.63;;;;;;;;;;6335796;28;20066;-84
2023/09/08 06:19:31;;;;;;;18.05;11.13;;;;;;;;;;6347462;27;20111;-83
2023/09/08 06:22:34;;;;;;;13.65;10.30;;;;;;;;;;6351444;27;20051;-84
2023/09/08 06:25:36;;;;;;;16.17;10.15;;;;;;;;;;6336660;27;20059;-83
2023/09/08 06:28:45;;;;;;;13.65;9.50;;;;;;;;;;6347990;28;20068;-84
2023/09/08 06:31:53;;;;;;;11.70;8.30;;;;;;;;;;6350167;28;20044;-80
2023/09/08 06:35:01;;;;;;;14.75;8.50;;;;;;;;;;6351251;28;20461;-81
2023/09/08 06:38:13;;;;;;;11.15;8.32;;;;;;;;;;6344600;28;20064;-83
2023/09/08 06:41:18;;;;;;;9.40;7.90;;;;;;;;;;6345521;28;20141;-82
2023/09/08 06:44:21;;;;;;;11.30;8.18;;;;;;;;;;6350842;28;20232;-80
2023/09/08 06:47:26;;;;;;;17.45;9.90;;;;;;;;;;6312753;28;20052;-80
2023/09/08 06:50:29;;;;;;;12.70;8.13;;;;;;;;;;6314780;28;20067;-80
2023/09/08 06:53:32;;;;;;;13.23;8.35;;;;;;;;;;6348579;28;20398;-80
2023/09/08 06:56:36;;;;;;;14.70;8.32;;;;;;;;;;6350035;28;20124;-80
2023/09/08 06:59:37;;;;;;;14.27;8.38;;;;;;;;;;6349188;28;20048;-80
2023/09/08 07:02:41;;;;;;;12.82;7.78;;;;;;;;;;6350857;28;20150;-80
2023/09/08 07:05:43;;;;;;;14.52;8.07;;;;;;;;;;6344492;28;20056;-80
2023/09/08 07:08:45;;;;;;;9.70;7.20;;;;;;;;;;6346070;28;20070;-81
2023/09/08 07:12:00;;;;;;;10.20;6.65;;;;;;;;;;6343582;28;20495;-80
2023/09/08 07:15:09;;;;;;;10.18;6.32;;;;;;;;;;6351293;28;20073;-80
2023/09/08 07:18:12;;;;;;;9.18;6.35;;;;;;;;;;6354377;28;20056;-80
2023/09/08 07:21:14;;;;;;;10.88;6.25;;;;;;;;;;6350429;28;20060;-81
2023/09/08 07:24:19;;;;;;;13.88;6.82;;;;;;;;;;6353458;28;20047;-81
2023/09/08 07:27:21;;;;;;;13.30;6.22;;;;;;;;;;6354066;28;20325;-81
2023/09/08 07:30:25;;;;;;;8.48;6.03;;;;;;;;;;6350135;28;20048;-81
2023/09/08 07:33:29;;;;;;;9.23;6.32;;;;;;;;;;6354060;28;20102;-80
2023/09/08 07:39:53;;;;;;;7.65;5.28;;;;;;;;;;6332732;27;20043;-81
2023/09/08 07:43:05;;;;;;;7.45;5.20;;;;;;;;;;6376669;27;20035;-81
2023/09/08 07:46:07;;;;;;;7.03;5.18;;;;;;;;;;6364880;27;20294;-80
2023/09/08 07:49:10;;;;;;;7.18;4.05;;;;;;;;;;6370201;27;20051;-80
2023/09/08 07:52:18;;;;;;;7.05;4.07;;;;;;;;;;6366910;27;20050;-80
2023/09/08 07:55:22;;;;;;;6.22;4.07;;;;;;;;;;6367564;27;20123;-80
2023/09/08 07:58:39;;;;;;;4.80;3.72;;;;;;;;;;6355834;27;20043;-80
2023/09/08 08:02:16;;;;;;;8.00;3.97;;;;;;;;;;6333053;27;20059;-81
2023/09/08 08:05:49;;;;;;;6.25;3.90;;;;;;;;;;6314753;28;20044;-80
2023/09/08 08:08:51;;;;;;;5.82;3.88;;;;;;;;;;6335289;28;20079;-81
2023/09/08 08:15:14;;;;;;;4.47;3.35;;;;;;;;;;6320161;28;20100;-80
2023/09/08 08:21:37;;;;;;;5.22;3.67;;;;;;;;;;6309086;28;20055;-80
2023/09/08 08:24:39;;;;;;;5.93;3.95;;;;;;;;;;6340226;27;20055;-80
2023/09/08 08:27:41;;;;;;;5.60;3.83;;;;;;;;;;6355285;27;20239;-80
2023/09/08 08:30:43;;;;;;;8.73;3.88;;;;;;;;;;6362802;27;20449;-81
2023/09/08 08:37:17;;;;;;;6.07;4.25;;;;;;;;;;6360558;27;20070;-80
2023/09/08 08:40:34;;;;;;;4.45;3.47;;;;;;;;;;6361104;27;20074;-81
2023/09/08 08:43:51;;;;;;;8.20;3.45;;;;;;;;;;6369614;27;20688;-80
2023/09/08 08:46:54;;;;;;;4.90;3.95;;;;;;;;;;6373983;27;20058;-81
2023/09/08 08:53:28;;;;;;;6.53;3.90;;;;;;;;;;6356779;27;20039;-81
2023/09/08 08:56:30;;;;;;;7.32;4.00;;;;;;;;;;6374825;27;20255;-81
2023/09/08 08:59:32;;;;;;;9.35;3.47;;;;;;;;;;6373027;27;20152;-81
2023/09/08 09:02:34;;;;;;;5.78;3.60;;;;;;;;;;6360203;27;20126;-82
2023/09/08 09:05:38;;;;;;;5.78;3.72;;;;;;;;;;6366787;27;20066;-80
2023/09/08 09:08:59;;;;;;;4.82;3.63;;;;;;;;;;6373802;27;20054;-80
2023/09/08 09:12:02;;;;;;;7.30;3.67;;;;;;;;;;6363190;27;20056;-81
2023/09/08 09:15:05;;;;;;;4.28;3.58;;;;;;;;;;6371832;27;20050;-79
2023/09/08 09:18:13;;;;;;;6.30;4.07;;;;;;;;;;6369279;27;20053;-80
2023/09/08 09:21:15;;;;;;;5.30;3.80;;;;;;;;;;6373373;27;20053;-80
2023/09/08 09:24:20;;;;;;;4.18;3.65;;;;;;;;;;6372887;27;20050;-80
2023/09/08 09:27:45;;;;;;;4.65;3.75;;;;;;;;;;6372348;27;20055;-83
2023/09/08 09:31:01;;;;;;;4.20;3.80;;;;;;;;;;6371462;27;20103;-80
2023/09/08 11:27:51;;;;;;;3.60;3.30;;;;;;;;;;6015471;29;20156;-82
2023/09/08 11:31:41;;;;;;;8.90;3.60;;;;;;;;;;6064376;29;20048;-83
2023/09/08 11:35:50;;;;;;;4.88;3.45;;;;;;;;;;6072696;29;20063;-82
2023/09/08 12:19:48;;;;;;;4.00;3.53;;;;;;;;;;5967550;29;20046;-82
2023/09/08 12:24:17;;;;;;;;;;;;;;;;;;;;;
2023/09/08 12:31:26;;;;;;;4.72;4.25;;;;;;;;;;6057036;29;20134;-82
2023/09/08 12:34:41;;;;;;;4.18;3.78;;;;;;;;;;6150169;28;20048;-82
2023/09/08 12:57:44;;;;;;;;;;;;;;;;;;6164525;28;20264;-79
2023/09/08 15:13:24;;;;;;;4.82;4.40;;;;;;;;;;6084011;29;20130;-78
2023/09/08 15:16:49;;;;;;;5.95;4.00;;;;;;;;;;6091094;28;20064;-79
2023/09/08 15:24:10;;;;;;;;;;;;;;;;;;6122686;29;20040;-79
2023/09/08 15:27:16;;;;;;;5.18;3.85;;;;;;;;;;6122087;29;19918;-80
2023/09/08 19:54:32;;;;;;;19.38;11.35;;;;;;;;;;6106417;29;20060;-84
2023/09/08 20:01:47;;;;;;;25.70;16.08;;;;;;;;;;6044103;29;20044;-81
2023/09/08 20:08:49;;;;;;;27.08;12.85;;;;;;;;;;5982549;29;20089;-82
2023/09/08 20:12:18;;;;;;;24.60;12.25;;;;;;;;;;6043568;29;20074;-82
2023/09/08 20:15:30;;;;;;;;;;;;;;;;;;;;;
2023/09/08 20:18:35;;;;;;;31.20;14.48;;;;;;;;;;6061272;29;20072;-81
2023/09/08 20:21:48;;;;;;;19.90;13.02;;;;;;;;;;6062403;29;20219;-81
2023/09/08 20:25:27;;;;;;;20.40;13.00;;;;;;;;;;6064372;29;20058;-82
2023/09/08 20:28:43;;;;;;;;;;;;;;;;;;;;;
2023/09/08 20:31:46;;;;;;;19.58;11.18;;;;;;;;;;6116621;29;20293;-82
2023/09/08 20:34:50;;;;;;;29.35;12.90;;;;;;;;;;6156633;28;20046;-81
2023/09/08 20:37:57;;;;;;;19.98;11.88;;;;;;;;;;6256830;28;20147;-80
2023/09/08 20:40:59;;;;;;;20.17;10.90;;;;;;;;;;6347311;28;20062;-81
2023/09/08 20:44:02;;;;;;;18.25;11.05;;;;;;;;;;6348792;28;20270;-82
2023/09/08 20:47:05;;;;;;;17.58;11.75;;;;;;;;;;6350619;28;20150;-80
2023/09/08 20:50:08;;;;;;;23.75;10.77;;;;;;;;;;6338939;28;20166;-81
2023/09/08 20:53:19;;;;;;;16.70;11.90;;;;;;;;;;6348628;28;20048;-81
2023/09/08 20:56:24;;;;;;;21.05;11.77;;;;;;;;;;6364224;27;20081;-82
2023/09/08 20:59:27;;;;;;;19.17;12.30;;;;;;;;;;6370964;27;20240;-80
2023/09/08 21:02:31;;;;;;;28.23;16.52;;;;;;;;;;6366300;27;20086;-81
2023/09/08 21:05:43;;;;;;;32.65;18.45;;;;;;;;;;6353862;27;20054;-81
2023/09/08 21:12:24;;;;;;;26.90;16.25;;;;;;;;;;6350041;27;20077;-81
2023/09/08 21:15:40;;;;;;;28.45;15.07;;;;;;;;;;6361566;27;20133;-81
2023/09/08 21:18:54;;;;;;;21.33;13.55;;;;;;;;;;6348627;27;20143;-81
2023/09/08 21:21:59;;;;;;;20.60;13.85;;;;;;;;;;6370667;27;20074;-81
2023/09/08 21:25:03;;;;;;;15.48;10.63;;;;;;;;;;6372556;27;20309;-82
2023/09/08 21:28:06;;;;;;;20.33;12.07;;;;;;;;;;6358052;27;20075;-81
2023/09/08 21:31:12;;;;;;;;;;;;;;;;;;6357467;27;20051;-84
2023/09/08 21:46:43;;;;;;;31.13;16.33;;;;;;;;;;6103360;28;20050;-84
2023/09/08 21:58:03;;;;;;;22.35;11.85;;;;;;;;;;6158241;28;20126;-83
2023/09/08 22:16:50;;;;;;;17.92;12.50;;;;;;;;;;6171687;28;20849;-82
2023/09/08 22:23:42;;;;;;;23.77;11.50;;;;;;;;;;6154751;28;20050;-83
2023/09/08 22:26:54;;;;;;;19.73;10.45;;;;;;;;;;6168909;28;20252;-83
2023/09/08 22:30:03;;;;;;;11.73;9.20;;;;;;;;;;6157663;28;20086;-82
2023/09/08 22:38:00;;;;;;;17.00;11.13;;;;;;;;;;6131123;28;20059;-84
2023/09/08 22:41:31;;;;;;;21.27;12.75;;;;;;;;;;6159915;28;20059;-82
2023/09/08 23:03:26;;;;;;;13.25;9.35;;;;;;;;;;6369204;28;20108;-80
2023/09/08 23:06:30;;;;;;;14.43;9.02;;;;;;;;;;6574323;22;20335;-79
2023/09/08 23:09:32;;;;;;;17.85;11.05;;;;;;;;;;6339211;28;20234;-80
2023/09/08 23:20:00;;;;;;;29.70;15.68;;;;;;;;;;6253690;28;20039;-82
2023/09/08 23:23:11;;;;;;;21.33;14.77;;;;;;;;;;6273972;28;21273;-86
2023/09/08 23:26:13;;;;;;;54.95;24.67;;;;;;;;;;6328306;28;21862;-84
2023/09/08 23:29:17;;;;;;;67.75;32.28;;;;;;;;;;6326791;28;20063;-80
2023/09/08 23:32:24;;;;;;;65.03;36.88;;;;;;;;;;6327766;28;20122;-82
2023/09/08 23:35:28;;;;;;;63.38;31.92;;;;;;;;;;6330468;28;20208;-79
2023/09/08 23:38:35;;;;;;;47.30;23.05;;;;;;;;;;6310346;28;20063;-82
2023/09/08 23:41:40;;;;;;;46.42;22.52;;;;;;;;;;6322070;28;20062;-80
2023/09/08 23:48:10;;;;;;;44.70;27.38;;;;;;;;;;6231057;28;20079;-81
2023/09/08 23:54:57;;;;;;;42.00;21.27;;;;;;;;;;6248178;28;20077;-82
2023/09/08 23:58:10;;;;;;;39.67;22.33;;;;;;;;;;6330902;28;20051;-79
